createdAt,value
2022-12-09T00:00:01.310Z,5.73
2022-12-09T00:02:43.551Z,5.10
2022-12-09T00:08:32.041Z,5.57
2022-12-09T00:11:05.127Z,6.50
2022-12-09T00:14:09.325Z,8.00
2022-12-09T00:16:34.630Z,14.33
2022-12-09T00:19:12.563Z,6.10
2022-12-09T00:21:46.908Z,10.07
2022-12-09T00:24:53.192Z,6.63
2022-12-09T00:33:06.157Z,4.93
2022-12-09T00:35:45.054Z,7.20
2022-12-09T00:41:37.076Z,13.63
2022-12-09T00:53:01.562Z,6.53
2022-12-09T00:55:47.668Z,12.77
2022-12-09T00:58:41.207Z,7.40
2022-12-09T01:01:48.849Z,7.87
2022-12-09T01:10:55.554Z,4.60
2022-12-09T01:16:09.240Z,8.23
2022-12-09T01:18:37.741Z,4.20
2022-12-09T01:24:11.604Z,8.93
2022-12-09T01:29:32.411Z,5.53
2022-12-09T01:32:58.807Z,8.70
2022-12-09T01:35:56.849Z,5.40
2022-12-09T01:42:44.233Z,3.97
2022-12-09T01:45:35.845Z,4.97
2022-12-09T01:56:40.508Z,8.30
2022-12-09T01:59:16.522Z,9.27
2022-12-09T02:05:10.573Z,7.40
2022-12-09T02:10:57.850Z,5.20
2022-12-09T02:13:44.078Z,7.90
2022-12-09T02:19:36.283Z,6.30
2022-12-09T02:25:25.263Z,6.43
2022-12-09T02:28:14.400Z,5.97
2022-12-09T02:30:56.021Z,5.63
2022-12-09T02:33:39.729Z,5.87
2022-12-09T02:36:34.398Z,6.57
2022-12-09T02:39:08.017Z,4.40
2022-12-09T02:41:47.492Z,6.77
2022-12-09T02:44:19.374Z,9.27
2022-12-09T02:46:48.908Z,6.33
2022-12-09T02:49:20.126Z,5.00
2022-12-09T02:51:50.730Z,6.20
2022-12-09T02:54:20.888Z,6.80
2022-12-09T02:57:02.276Z,4.33
2022-12-09T02:59:30.041Z,6.50
2022-12-09T03:01:57.930Z,6.40
2022-12-09T03:04:28.896Z,5.43
2022-12-09T03:07:23.963Z,5.30
2022-12-09T03:09:59.184Z,5.67
2022-12-09T03:12:31.523Z,4.37
2022-12-09T03:15:03.321Z,4.83
2022-12-09T03:17:39.272Z,7.37
2022-12-09T03:20:13.140Z,5.63
2022-12-09T03:22:44.196Z,4.20
2022-12-09T03:25:24.818Z,3.73
2022-12-09T03:28:18.315Z,3.60
2022-12-09T03:31:08.082Z,5.07
2022-12-09T03:33:36.370Z,4.43
2022-12-09T03:39:23.653Z,5.00
2022-12-09T03:41:57.910Z,16.80
2022-12-09T03:44:51.212Z,4.07
2022-12-09T03:47:19.603Z,3.97
2022-12-09T03:49:50.663Z,6.87
2022-12-09T03:52:38.542Z,5.97
2022-12-09T03:55:26.537Z,4.30
2022-12-09T03:58:40.468Z,9.50
2022-12-09T04:01:21.479Z,4.57
2022-12-09T04:04:00.101Z,5.20
2022-12-09T04:06:29.880Z,4.53
2022-12-09T04:09:02.160Z,6.57
2022-12-09T04:11:34.539Z,4.57
2022-12-09T04:14:09.170Z,5.83
2022-12-09T04:16:40.260Z,6.37
2022-12-09T04:19:33.375Z,6.23
2022-12-09T04:22:01.332Z,27.27
2022-12-09T04:24:36.938Z,5.27
2022-12-09T04:27:18.339Z,8.13
2022-12-09T04:57:15.837Z,5.27
2022-12-09T04:59:46.518Z,12.50
2022-12-09T05:02:22.568Z,18.97
2022-12-09T05:04:54.930Z,12.30
2022-12-09T05:07:28.242Z,11.97
2022-12-09T05:10:00.490Z,8.07
2022-12-09T05:12:42.678Z,8.20
2022-12-09T05:15:16.873Z,10.73
2022-12-09T05:17:53.345Z,8.07
2022-12-09T05:20:38.074Z,8.37
2022-12-09T05:24:00.263Z,9.57
2022-12-09T05:26:36.212Z,7.30
2022-12-09T05:32:30.968Z,10.67
2022-12-09T05:35:04.014Z,10.33
2022-12-09T05:37:35.654Z,7.83
2022-12-09T06:09:54.078Z,96.33
2022-12-09T06:35:01.288Z,65.87
2022-12-09T06:40:08.541Z,47.03
2022-12-09T06:43:27.746Z,26.33
2022-12-09T06:50:07.466Z,49.10
2022-12-09T06:59:44.664Z,32.93
2022-12-09T07:02:16.993Z,35.50
2022-12-09T07:05:09.635Z,25.80
2022-12-09T07:42:33.655Z,25.40
2022-12-09T07:59:58.235Z,31.50
2022-12-09T08:37:08.670Z,33.93
2022-12-09T08:43:31.301Z,30.40
2022-12-09T08:46:09.727Z,31.87
2022-12-09T08:48:40.731Z,14.47
2022-12-09T08:59:15.282Z,25.60
2022-12-09T09:04:55.666Z,35.70
2022-12-09T09:07:56.793Z,16.00
2022-12-09T09:29:30.720Z,28.60
2022-12-09T12:57:48.275Z,6.80
2022-12-09T13:15:40.169Z,8.80
2022-12-09T13:18:27.093Z,6.80
2022-12-09T13:20:59.331Z,6.27
2022-12-09T13:24:03.614Z,6.97
2022-12-09T13:27:20.574Z,6.53
2022-12-09T13:30:33.371Z,6.90
2022-12-09T13:33:30.841Z,6.77
2022-12-09T13:36:08.426Z,7.27
2022-12-09T13:50:07.156Z,5.77
2022-12-09T13:59:32.896Z,8.53
2022-12-09T14:02:23.603Z,5.87
2022-12-09T14:12:24.864Z,12.30
2022-12-09T14:15:24.803Z,9.90
2022-12-09T14:21:48.884Z,11.70
2022-12-09T14:35:00.592Z,9.63
2022-12-09T14:40:39.912Z,9.60
2022-12-09T14:53:54.207Z,8.93
2022-12-09T14:56:27.033Z,9.70
2022-12-09T14:59:12.007Z,8.73
2022-12-09T15:02:02.640Z,11.77
2022-12-09T15:04:53.165Z,11.90
2022-12-09T15:07:26.373Z,13.17
2022-12-09T15:10:06.488Z,11.77
2022-12-09T15:12:46.123Z,15.50
2022-12-09T15:15:39.044Z,13.07
2022-12-09T15:18:32.779Z,18.50
2022-12-09T15:21:05.043Z,14.00
2022-12-09T15:23:41.546Z,13.20
2022-12-09T15:26:34.117Z,13.50
2022-12-09T15:29:05.343Z,11.43
2022-12-09T15:31:50.120Z,10.80
2022-12-09T15:34:32.945Z,13.40
2022-12-09T15:37:12.339Z,12.37
2022-12-09T15:39:57.670Z,9.83
2022-12-09T15:42:49.348Z,9.47
2022-12-09T15:45:24.679Z,9.37
2022-12-09T15:48:05.466Z,11.50
2022-12-09T15:50:40.679Z,11.13
2022-12-09T15:53:23.446Z,13.40
2022-12-09T15:56:09.351Z,10.40
2022-12-09T15:58:48.685Z,9.57
2022-12-09T16:01:26.377Z,11.43
2022-12-09T16:03:56.339Z,9.67
2022-12-09T16:06:31.374Z,8.57
2022-12-09T16:09:00.388Z,9.17
2022-12-09T16:11:52.857Z,11.77
2022-12-09T16:14:44.389Z,10.17
2022-12-09T16:17:29.752Z,9.43
2022-12-09T16:19:57.572Z,11.70
2022-12-09T16:22:29.433Z,13.70
2022-12-09T16:25:16.330Z,13.33
2022-12-09T16:27:49.024Z,13.47
2022-12-09T16:30:22.866Z,10.77
2022-12-09T16:33:03.243Z,11.50
2022-12-09T16:35:45.385Z,10.80
2022-12-09T16:38:21.488Z,11.70
2022-12-09T16:41:12.395Z,12.77
2022-12-09T16:43:57.675Z,14.00
2022-12-09T16:46:43.411Z,14.13
2022-12-09T16:49:12.285Z,14.20
2022-12-09T16:51:42.872Z,13.70
2022-12-09T16:54:31.468Z,15.43
2022-12-09T16:56:59.225Z,19.20
2022-12-09T16:59:33.977Z,24.77
2022-12-09T17:02:10.545Z,15.13
2022-12-09T17:04:39.853Z,20.53
2022-12-09T17:07:16.750Z,20.20
2022-12-09T17:09:44.399Z,12.23
2022-12-09T17:12:20.492Z,12.43
2022-12-09T17:14:48.330Z,15.87
2022-12-09T17:17:23.972Z,10.07
2022-12-09T17:19:53.926Z,9.73
2022-12-09T17:22:28.249Z,14.60
2022-12-09T17:25:00.577Z,12.27
2022-12-09T17:27:47.180Z,12.77
2022-12-09T17:30:17.040Z,12.43
2022-12-09T17:32:44.755Z,12.20
2022-12-09T17:35:17.239Z,17.97
2022-12-09T17:37:45.894Z,13.37
2022-12-09T17:40:14.252Z,11.07
2022-12-09T17:42:41.700Z,11.77
2022-12-09T17:45:10.301Z,10.37
2022-12-09T17:47:56.761Z,11.57
2022-12-09T17:50:24.458Z,12.63
2022-12-09T17:52:54.435Z,14.00
2022-12-09T17:55:24.631Z,13.00
2022-12-09T17:57:54.318Z,16.27
2022-12-09T18:00:21.994Z,15.07
2022-12-09T18:02:54.531Z,13.00
2022-12-09T18:05:22.033Z,17.10
2022-12-09T18:07:55.033Z,19.70
2022-12-09T18:10:22.864Z,17.60
2022-12-09T18:12:50.628Z,16.57
2022-12-09T18:15:25.672Z,13.50
2022-12-09T18:17:53.155Z,13.37
2022-12-09T18:20:23.138Z,12.97
2022-12-09T18:22:56.232Z,12.07
2022-12-09T18:25:23.819Z,13.73
2022-12-09T18:27:57.507Z,16.77
2022-12-09T18:30:24.982Z,23.63
2022-12-09T18:32:55.790Z,19.70
2022-12-09T18:35:44.093Z,34.13
2022-12-09T18:38:12.944Z,24.67
2022-12-09T18:41:01.225Z,17.63
2022-12-09T18:43:33.605Z,20.93
2022-12-09T18:46:03.369Z,16.40
2022-12-09T18:48:32.013Z,14.40
2022-12-09T18:50:59.734Z,13.87
2022-12-09T18:53:30.693Z,14.90
2022-12-09T18:55:59.761Z,17.63
2022-12-09T18:58:57.580Z,17.23
2022-12-09T19:01:29.296Z,13.27
2022-12-09T19:04:00.741Z,11.50
2022-12-09T19:06:37.713Z,10.20
2022-12-09T19:09:16.672Z,10.67
2022-12-09T19:12:37.939Z,10.50
2022-12-09T19:14:52.197Z,45.43
2022-12-09T19:17:20.218Z,15.73
2022-12-09T19:19:49.399Z,11.93
2022-12-09T19:22:20.127Z,24.60
2022-12-09T19:24:47.723Z,24.37
2022-12-09T19:27:15.175Z,16.67
2022-12-09T19:29:42.810Z,25.97
2022-12-09T19:32:36.436Z,12.00
2022-12-09T19:35:00.952Z,25.53
2022-12-09T19:37:28.457Z,20.83
2022-12-09T19:39:55.990Z,15.00
2022-12-09T19:42:23.737Z,13.93
2022-12-09T19:45:12.092Z,15.60
2022-12-09T19:47:38.721Z,14.97
2022-12-09T19:50:12.342Z,14.23
2022-12-09T19:52:39.904Z,17.60
2022-12-09T19:55:08.676Z,29.47
2022-12-09T19:57:36.336Z,20.87
2022-12-09T20:00:38.204Z,39.67
2022-12-09T20:03:10.683Z,20.80
2022-12-09T20:05:56.814Z,41.00
2022-12-09T20:08:25.619Z,22.27
2022-12-09T20:10:53.377Z,21.93
2022-12-09T20:13:28.636Z,33.53
2022-12-09T20:16:05.042Z,45.80
2022-12-09T20:18:32.719Z,22.27
2022-12-09T20:21:02.474Z,41.17
2022-12-09T20:23:32.809Z,39.27
2022-12-09T20:26:10.309Z,25.70
2022-12-09T20:28:39.845Z,20.63
2022-12-09T20:31:19.217Z,17.60
2022-12-09T20:33:52.462Z,14.93
2022-12-09T20:36:22.292Z,10.97
2022-12-09T20:56:13.992Z,15.80
2022-12-09T21:50:41.688Z,13.07
2022-12-09T22:35:23.685Z,24.73
2022-12-09T22:37:51.549Z,38.73
2022-12-09T22:40:20.193Z,43.90
2022-12-09T22:43:01.516Z,60.40
2022-12-09T22:48:43.241Z,21.03
2022-12-09T22:51:25.304Z,19.07
2022-12-09T22:53:57.642Z,16.53
2022-12-09T22:56:30.183Z,17.17
2022-12-09T22:59:11.649Z,20.70
2022-12-09T23:01:39.949Z,24.07
2022-12-09T23:04:11.733Z,28.87
2022-12-09T23:06:42.087Z,23.73
2022-12-09T23:09:17.196Z,24.13
2022-12-09T23:12:02.585Z,26.30
2022-12-09T23:14:30.218Z,25.20
2022-12-09T23:17:03.237Z,20.37
2022-12-09T23:19:49.065Z,20.17
2022-12-09T23:22:34.799Z,17.37
2022-12-09T23:25:02.389Z,23.30
2022-12-09T23:27:45.173Z,20.63
2022-12-09T23:33:06.077Z,16.83
2022-12-09T23:41:18.438Z,36.60
2022-12-09T23:43:50.729Z,56.93
2022-12-09T23:57:04.063Z,41.60
2022-12-09T23:59:36.606Z,37.20
